createdAt,value
2023-04-25T00:02:17.890Z,6.90
2023-04-25T00:04:44.955Z,6.90
2023-04-25T00:07:12.118Z,6.90
2023-04-25T00:09:38.694Z,6.90
2023-04-25T00:12:05.916Z,7.00
2023-04-25T00:14:34.965Z,7.10
2023-04-25T00:17:01.795Z,7.10
2023-04-25T00:19:29.299Z,7.00
2023-04-25T00:21:56.512Z,7.00
2023-04-25T00:24:23.073Z,7.00
2023-04-25T00:26:49.712Z,7.00
2023-04-25T00:29:16.358Z,7.10
2023-04-25T00:31:43.003Z,7.10
2023-04-25T00:34:09.651Z,7.10
2023-04-25T00:36:37.131Z,7.20
2023-04-25T00:39:05.490Z,7.10
2023-04-25T00:41:32.095Z,7.20
2023-04-25T00:44:00.216Z,7.10
2023-04-25T00:46:26.919Z,7.10
2023-04-25T00:48:53.546Z,7.00
2023-04-25T00:51:23.247Z,6.90
2023-04-25T00:53:51.722Z,7.00
2023-04-25T00:56:18.927Z,7.00
2023-04-25T00:58:45.672Z,7.10
2023-04-25T01:01:13.636Z,7.10
2023-04-25T01:03:44.466Z,7.10
2023-04-25T01:06:11.745Z,7.20
2023-04-25T01:08:39.765Z,7.10
2023-04-25T01:11:07.117Z,7.20
2023-04-25T01:13:34.619Z,7.20
2023-04-25T01:16:02.460Z,7.10
2023-04-25T01:18:29.308Z,7.10
2023-04-25T01:20:56.601Z,7.20
2023-04-25T01:23:24.109Z,7.20
2023-04-25T01:25:50.996Z,7.20
2023-04-25T01:28:17.725Z,7.20
2023-04-25T01:30:44.477Z,7.20
2023-04-25T01:33:12.353Z,7.20
2023-04-25T01:35:38.975Z,7.30
2023-04-25T01:38:05.554Z,7.20
2023-04-25T01:40:34.096Z,7.20
2023-04-25T01:43:00.913Z,7.20
2023-04-25T01:45:27.511Z,7.20
2023-04-25T01:47:54.171Z,7.20
2023-04-25T01:50:21.159Z,7.20
2023-04-25T01:52:47.961Z,7.30
2023-04-25T01:55:14.575Z,7.30
2023-04-25T01:57:41.187Z,7.30
2023-04-25T02:00:09.888Z,7.20
2023-04-25T02:02:37.017Z,7.30
2023-04-25T02:05:03.911Z,7.20
2023-04-25T02:07:30.738Z,7.20
2023-04-25T02:09:57.374Z,7.20
2023-04-25T02:12:24.022Z,7.20
2023-04-25T02:14:50.826Z,7.20
2023-04-25T02:17:17.466Z,7.20
2023-04-25T02:19:44.391Z,7.20
2023-04-25T02:22:11.401Z,7.10
2023-04-25T02:24:38.023Z,7.10
2023-04-25T02:27:04.758Z,7.10
2023-04-25T02:29:31.412Z,7.00
2023-04-25T02:31:58.161Z,7.10
2023-04-25T02:34:24.787Z,7.10
2023-04-25T02:36:54.075Z,6.90
2023-04-25T02:39:22.962Z,6.90
2023-04-25T02:41:49.508Z,7.00
2023-04-25T02:44:16.244Z,7.00
2023-04-25T02:46:42.856Z,7.00
2023-04-25T02:49:09.501Z,7.00
2023-04-25T02:51:36.321Z,7.00
2023-04-25T02:54:02.983Z,7.00
2023-04-25T02:56:29.641Z,7.00
2023-04-25T02:58:56.234Z,6.90
2023-04-25T03:01:22.978Z,6.90
2023-04-25T03:03:50.050Z,6.80
2023-04-25T03:06:17.022Z,6.80
2023-04-25T03:08:43.882Z,6.80
2023-04-25T03:11:10.564Z,6.70
2023-04-25T03:13:37.165Z,6.70
2023-04-25T03:16:04.004Z,6.60
2023-04-25T03:18:30.697Z,6.60
2023-04-25T03:20:57.287Z,6.50
2023-04-25T03:23:23.897Z,6.50
2023-04-25T03:25:50.496Z,6.60
2023-04-25T03:28:17.091Z,6.60
2023-04-25T03:30:43.720Z,6.50
2023-04-25T03:33:10.418Z,6.60
2023-04-25T03:35:37.029Z,6.60
2023-04-25T03:38:03.623Z,6.60
2023-04-25T03:40:30.374Z,6.60
2023-04-25T03:42:56.991Z,6.50
2023-04-25T03:45:23.614Z,6.50
2023-04-25T03:47:50.937Z,6.50
2023-04-25T03:50:17.628Z,6.50
2023-04-25T03:52:44.600Z,6.50
2023-04-25T03:55:11.419Z,6.40
2023-04-25T03:57:38.010Z,6.40
2023-04-25T04:00:05.665Z,6.40
2023-04-25T04:02:34.061Z,6.40
2023-04-25T04:05:00.791Z,6.40
2023-04-25T04:07:27.667Z,6.40
2023-04-25T04:09:54.265Z,6.40
2023-04-25T04:12:20.932Z,6.30
2023-04-25T04:14:47.518Z,6.30
2023-04-25T04:17:14.121Z,6.30
2023-04-25T04:19:40.707Z,6.30
2023-04-25T04:22:07.397Z,6.40
2023-04-25T04:24:34.095Z,6.30
2023-04-25T04:27:00.733Z,6.20
2023-04-25T04:29:27.322Z,6.30
2023-04-25T04:31:54.094Z,6.20
2023-04-25T04:34:20.938Z,6.20
2023-04-25T04:36:47.760Z,6.30
2023-04-25T04:39:14.909Z,6.20
2023-04-25T04:41:41.614Z,6.20
2023-04-25T04:44:09.805Z,6.20
2023-04-25T04:46:42.898Z,6.30
2023-04-25T04:49:10.937Z,6.30
2023-04-25T04:51:38.769Z,6.40
2023-04-25T04:54:05.710Z,6.30
2023-04-25T04:56:33.100Z,6.40
2023-04-25T04:59:00.649Z,6.40
2023-04-25T05:01:27.593Z,6.50
2023-04-25T05:03:55.184Z,6.40
2023-04-25T05:06:22.330Z,6.50
2023-04-25T05:08:48.972Z,6.50
2023-04-25T05:11:15.543Z,6.60
2023-04-25T05:13:42.171Z,6.50
2023-04-25T05:16:09.178Z,6.50
2023-04-25T05:18:36.047Z,6.50
2023-04-25T05:21:02.655Z,6.50
2023-04-25T05:23:32.158Z,6.50
2023-04-25T05:26:00.155Z,6.60
2023-04-25T05:28:26.773Z,6.60
2023-04-25T05:30:53.378Z,6.70
2023-04-25T05:33:20.242Z,6.60
2023-04-25T05:35:47.987Z,6.60
2023-04-25T05:38:14.572Z,6.70
2023-04-25T05:40:41.701Z,6.80
2023-04-25T05:43:08.344Z,6.80
2023-04-25T05:45:35.138Z,6.90
2023-04-25T05:48:01.814Z,6.90
2023-04-25T05:50:28.461Z,6.90
2023-04-25T05:52:55.199Z,7.00
2023-04-25T05:55:21.800Z,7.00
2023-04-25T05:57:50.123Z,7.10
2023-04-25T06:00:18.159Z,7.10
2023-04-25T06:02:44.907Z,7.10
2023-04-25T06:05:11.959Z,7.10
2023-04-25T06:07:38.689Z,7.10
2023-04-25T06:10:07.331Z,7.00
2023-04-25T06:12:34.377Z,7.00
2023-04-25T06:15:02.141Z,7.10
2023-04-25T06:17:29.235Z,7.10
2023-04-25T06:19:55.835Z,7.00
2023-04-25T06:22:22.479Z,7.10
2023-04-25T06:24:49.118Z,7.10
2023-04-25T06:27:17.105Z,7.00
2023-04-25T06:29:43.841Z,6.90
2023-04-25T06:32:10.546Z,7.00
2023-04-25T06:34:37.125Z,7.00
2023-04-25T06:37:03.722Z,7.00
2023-04-25T06:39:30.906Z,7.10
2023-04-25T06:41:57.486Z,7.10
2023-04-25T06:44:24.984Z,7.00
2023-04-25T06:46:51.657Z,7.00
2023-04-25T06:49:18.374Z,7.10
2023-04-25T06:51:45.257Z,7.10
2023-04-25T06:54:11.904Z,7.10
2023-04-25T06:56:38.550Z,7.10
2023-04-25T06:59:05.224Z,7.20
2023-04-25T07:01:31.903Z,7.30
2023-04-25T07:03:58.816Z,7.30
2023-04-25T07:06:26.844Z,7.40
2023-04-25T07:08:53.593Z,7.40
2023-04-25T07:11:20.790Z,7.50
2023-04-25T07:13:47.382Z,7.40
2023-04-25T07:16:14.107Z,7.50
2023-04-25T07:18:40.777Z,7.50
2023-04-25T07:21:07.399Z,7.60
2023-04-25T07:23:34.025Z,7.50
2023-04-25T07:26:00.681Z,7.60
2023-04-25T07:28:27.315Z,7.60
2023-04-25T07:30:53.969Z,7.60
2023-04-25T07:33:21.474Z,7.70
2023-04-25T07:35:48.290Z,7.90
2023-04-25T07:38:14.928Z,7.90
2023-04-25T07:40:41.583Z,7.80
2023-04-25T07:43:08.259Z,8.00
2023-04-25T07:45:34.889Z,8.00
2023-04-25T07:48:01.573Z,8.00
2023-04-25T07:50:28.196Z,8.10
2023-04-25T07:52:54.777Z,8.10
2023-04-25T07:55:21.385Z,8.20
2023-04-25T07:57:47.977Z,8.20
2023-04-25T08:00:15.805Z,8.20
2023-04-25T08:02:42.525Z,8.20
2023-04-25T08:05:12.589Z,8.30
2023-04-25T08:07:42.718Z,8.40
2023-04-25T08:10:09.593Z,8.40
2023-04-25T08:12:36.365Z,8.40
2023-04-25T08:15:03.212Z,8.30
2023-04-25T08:17:29.801Z,8.50
2023-04-25T08:19:56.821Z,8.50
2023-04-25T08:22:23.549Z,8.50
2023-04-25T08:24:50.198Z,8.40
2023-04-25T08:27:16.884Z,8.50
2023-04-25T08:29:43.639Z,8.50
2023-04-25T08:32:10.234Z,8.60
2023-04-25T08:34:38.835Z,8.50
2023-04-25T08:37:06.586Z,8.50
2023-04-25T08:39:33.173Z,8.60
2023-04-25T08:42:01.823Z,8.60
2023-04-25T08:44:28.558Z,8.60
2023-04-25T08:46:57.493Z,8.70
2023-04-25T08:49:24.934Z,8.70
2023-04-25T08:51:53.316Z,8.70
2023-04-25T08:54:34.762Z,8.80
2023-04-25T08:57:04.865Z,8.80
2023-04-25T08:59:32.972Z,8.80
2023-04-25T09:01:59.667Z,8.90
2023-04-25T09:04:26.914Z,9.00
2023-04-25T09:06:53.714Z,8.90
2023-04-25T09:09:20.679Z,9.00
2023-04-25T09:11:47.281Z,9.00
2023-04-25T09:14:16.876Z,9.00
2023-04-25T09:16:58.735Z,9.10
2023-04-25T09:19:38.973Z,9.00
2023-04-25T09:22:07.933Z,8.90
2023-04-25T09:24:38.799Z,9.10
2023-04-25T09:27:10.509Z,9.40
2023-04-25T09:29:38.945Z,9.70
2023-04-25T09:32:12.648Z,9.90
2023-04-25T09:34:51.615Z,9.60
2023-04-25T09:37:23.373Z,9.70
2023-04-25T09:40:11.054Z,9.50
2023-04-25T09:42:42.427Z,9.30
2023-04-25T09:45:13.458Z,9.10
2023-04-25T09:47:40.957Z,9.10
2023-04-25T09:50:16.336Z,9.20
2023-04-25T09:52:42.946Z,9.20
2023-04-25T09:55:09.572Z,9.30
2023-04-25T09:57:40.619Z,9.30
2023-04-25T10:00:11.932Z,9.40
2023-04-25T10:02:42.427Z,9.60
2023-04-25T10:05:09.915Z,9.40
2023-04-25T10:07:38.934Z,9.30
2023-04-25T10:10:07.135Z,9.40
2023-04-25T10:12:34.923Z,9.30
2023-04-25T10:15:02.266Z,9.20
2023-04-25T10:17:29.240Z,9.40
2023-04-25T10:19:56.480Z,9.40
2023-04-25T10:22:44.937Z,9.20
2023-04-25T10:25:12.165Z,9.30
2023-04-25T10:27:40.439Z,9.40
2023-04-25T10:30:16.030Z,9.40
2023-04-25T10:32:43.739Z,9.70
2023-04-25T10:35:13.665Z,9.80
2023-04-25T10:38:03.777Z,10.00
2023-04-25T10:40:30.918Z,9.80
2023-04-25T10:43:32.657Z,9.90
2023-04-25T10:46:02.959Z,10.00
2023-04-25T10:48:31.137Z,10.00
2023-04-25T10:51:09.117Z,10.00
2023-04-25T10:53:35.803Z,9.80
2023-04-25T10:56:30.992Z,10.00
2023-04-25T10:59:13.698Z,10.30
2023-04-25T11:01:45.264Z,10.10
2023-04-25T11:04:29.639Z,10.00
2023-04-25T11:07:06.412Z,9.90
2023-04-25T11:09:35.877Z,9.80
2023-04-25T11:12:02.668Z,9.80
2023-04-25T11:14:29.334Z,9.80
2023-04-25T11:16:58.902Z,9.70
2023-04-25T11:19:27.842Z,9.70
2023-04-25T11:22:01.920Z,9.50
2023-04-25T11:24:33.485Z,9.40
2023-04-25T11:27:00.728Z,9.40
2023-04-25T11:29:32.299Z,9.50
2023-04-25T11:31:59.622Z,9.50
2023-04-25T11:34:26.956Z,9.40
2023-04-25T11:36:54.443Z,9.00
2023-04-25T11:39:21.463Z,9.00
2023-04-25T11:41:48.400Z,8.90
2023-04-25T11:44:18.855Z,8.90
2023-04-25T11:46:45.995Z,8.90
2023-04-25T11:49:13.129Z,8.90
2023-04-25T11:51:41.509Z,9.10
2023-04-25T11:54:08.800Z,9.30
2023-04-25T11:56:35.464Z,9.50
2023-04-25T11:59:04.655Z,9.60
2023-04-25T12:01:35.405Z,9.60
2023-04-25T12:04:16.316Z,9.60
2023-04-25T12:06:45.187Z,9.70
2023-04-25T12:09:14.051Z,10.00
2023-04-25T12:11:45.099Z,10.30
2023-04-25T12:14:12.609Z,10.50
2023-04-25T12:16:47.178Z,10.60
2023-04-25T12:19:18.010Z,11.00
2023-04-25T12:21:57.168Z,11.20
2023-04-25T12:24:26.962Z,11.20
2023-04-25T12:27:07.325Z,11.40
2023-04-25T12:29:48.604Z,11.70
2023-04-25T12:32:16.109Z,11.60
2023-04-25T12:34:43.004Z,11.80
2023-04-25T12:37:09.748Z,11.50
2023-04-25T12:39:36.334Z,10.90
2023-04-25T12:42:04.314Z,10.70
2023-04-25T12:44:31.797Z,10.40
2023-04-25T12:46:58.714Z,10.30
2023-04-25T12:49:26.365Z,10.30
2023-04-25T12:51:52.937Z,10.10
2023-04-25T12:54:19.562Z,10.20
2023-04-25T12:56:47.151Z,10.00
2023-04-25T12:59:13.823Z,10.00
2023-04-25T13:01:40.627Z,9.80
2023-04-25T13:04:07.577Z,9.70
2023-04-25T13:06:34.363Z,9.50
2023-04-25T13:09:01.276Z,9.50
2023-04-25T13:11:27.979Z,9.40
2023-04-25T13:13:54.874Z,9.40
2023-04-25T13:16:22.349Z,9.60
2023-04-25T13:18:49.400Z,9.60
2023-04-25T13:21:15.991Z,9.70
2023-04-25T13:23:43.897Z,9.70
2023-04-25T13:26:11.169Z,9.50
2023-04-25T13:28:37.841Z,9.60
2023-04-25T13:31:04.454Z,9.70
2023-04-25T13:33:31.144Z,9.60
2023-04-25T13:35:58.357Z,9.70
2023-04-25T13:38:26.487Z,9.80
2023-04-25T13:40:53.583Z,9.60
2023-04-25T13:43:22.806Z,9.60
2023-04-25T13:45:50.578Z,9.90
2023-04-25T13:48:17.505Z,10.30
2023-04-25T13:50:44.258Z,10.40
2023-04-25T13:53:11.192Z,10.60
2023-04-25T13:55:38.241Z,10.60
2023-04-25T13:58:08.589Z,10.50
2023-04-25T14:00:39.419Z,11.20
2023-04-25T14:03:08.200Z,11.60
2023-04-25T14:05:39.986Z,12.20
2023-04-25T14:08:10.441Z,12.70
2023-04-25T14:10:37.936Z,12.20
2023-04-25T14:13:07.834Z,11.60
2023-04-25T14:15:35.937Z,11.40
2023-04-25T14:18:03.180Z,11.20
2023-04-25T14:20:30.467Z,10.90
2023-04-25T14:22:58.856Z,10.80
2023-04-25T14:25:26.193Z,10.80
2023-04-25T14:27:52.843Z,10.70
2023-04-25T14:30:20.588Z,10.50
2023-04-25T14:32:47.693Z,11.00
2023-04-25T14:35:14.476Z,11.70
2023-04-25T14:37:41.354Z,12.10
2023-04-25T14:40:13.849Z,12.30
2023-04-25T14:42:41.165Z,12.70
2023-04-25T14:45:09.414Z,12.90
2023-04-25T14:47:38.913Z,13.20
2023-04-25T14:50:07.339Z,13.20
2023-04-25T14:52:34.114Z,12.50
2023-04-25T14:55:06.153Z,12.00
2023-04-25T14:57:34.008Z,12.20
2023-04-25T15:00:00.851Z,12.70
2023-04-25T15:02:27.972Z,13.20
2023-04-25T15:04:56.800Z,13.10
2023-04-25T15:07:23.787Z,13.10
2023-04-25T15:09:50.441Z,13.50
2023-04-25T15:12:18.565Z,13.90
2023-04-25T15:14:45.453Z,14.10
2023-04-25T15:17:14.810Z,14.00
2023-04-25T15:19:41.430Z,14.00
2023-04-25T15:22:08.100Z,13.60
2023-04-25T15:24:35.151Z,13.90
2023-04-25T15:27:01.801Z,13.60
2023-04-25T15:29:29.574Z,13.70
2023-04-25T15:31:56.243Z,14.20
2023-04-25T15:34:22.889Z,14.60
2023-04-25T15:36:49.847Z,14.00
2023-04-25T15:39:16.525Z,14.40
2023-04-25T15:41:43.152Z,14.50
2023-04-25T15:44:10.811Z,14.10
2023-04-25T15:46:37.550Z,13.80
2023-04-25T15:49:04.447Z,13.10
2023-04-25T15:51:31.721Z,12.70
2023-04-25T15:53:58.276Z,12.20
2023-04-25T15:56:24.864Z,12.20
2023-04-25T15:58:51.665Z,12.70
2023-04-25T16:01:18.317Z,12.30
2023-04-25T16:03:45.056Z,11.90
2023-04-25T16:06:11.914Z,11.60
2023-04-25T16:08:38.585Z,11.40
2023-04-25T16:11:05.279Z,11.60
2023-04-25T16:13:33.489Z,11.20
2023-04-25T16:16:00.115Z,11.80
2023-04-25T16:18:26.762Z,12.60
2023-04-25T16:20:53.467Z,13.10
2023-04-25T16:23:20.164Z,13.40
2023-04-25T16:25:46.760Z,13.10
2023-04-25T16:28:13.405Z,13.10
2023-04-25T16:30:40.173Z,13.30
2023-04-25T16:33:06.845Z,13.60
2023-04-25T16:35:33.582Z,13.70
2023-04-25T16:38:01.010Z,13.60
2023-04-25T16:40:27.765Z,13.80
2023-04-25T16:42:54.401Z,13.90
2023-04-25T16:45:21.645Z,14.00
2023-04-25T16:47:48.284Z,14.00
2023-04-25T16:50:15.188Z,14.10
2023-04-25T16:52:43.805Z,13.50
2023-04-25T16:55:11.085Z,13.80
2023-04-25T16:57:37.945Z,13.50
2023-04-25T17:00:06.676Z,13.50
2023-04-25T17:02:33.522Z,13.30
2023-04-25T17:05:00.307Z,12.70
2023-04-25T17:07:27.735Z,12.30
2023-04-25T17:09:54.363Z,12.20
2023-04-25T17:12:21.641Z,11.80
2023-04-25T17:14:49.645Z,11.50
2023-04-25T17:17:18.579Z,11.20
2023-04-25T17:19:45.764Z,11.00
2023-04-25T17:22:12.613Z,10.90
2023-04-25T17:24:40.503Z,11.00
2023-04-25T17:27:07.213Z,11.00
2023-04-25T17:29:35.017Z,11.10
2023-04-25T17:32:01.955Z,11.10
2023-04-25T17:34:28.965Z,11.20
2023-04-25T17:36:55.598Z,11.10
2023-04-25T17:39:22.165Z,11.10
2023-04-25T17:41:48.882Z,11.10
2023-04-25T17:44:15.579Z,11.10
2023-04-25T17:46:42.258Z,10.90
2023-04-25T17:49:08.935Z,11.00
2023-04-25T17:51:35.625Z,11.00
2023-04-25T17:54:02.235Z,11.10
2023-04-25T17:56:29.082Z,11.20
2023-04-25T17:58:56.019Z,11.10
2023-04-25T18:01:23.010Z,11.00
2023-04-25T18:03:50.305Z,10.80
2023-04-25T18:06:18.292Z,10.70
2023-04-25T18:08:45.272Z,10.70
2023-04-25T18:11:12.243Z,10.60
2023-04-25T18:13:39.515Z,10.50
2023-04-25T18:16:06.765Z,10.40
2023-04-25T18:18:35.713Z,10.40
2023-04-25T18:21:04.909Z,10.40
2023-04-25T18:23:33.720Z,10.40
2023-04-25T18:26:00.549Z,10.30
2023-04-25T18:28:27.223Z,10.10
2023-04-25T18:30:54.234Z,10.10
2023-04-25T18:33:24.062Z,10.10
2023-04-25T18:35:58.134Z,9.90
2023-04-25T18:38:35.522Z,9.80
2023-04-25T18:41:18.417Z,9.70
2023-04-25T18:43:50.557Z,9.80
2023-04-25T18:46:22.018Z,9.90
2023-04-25T18:48:49.642Z,9.80
2023-04-25T18:51:16.736Z,9.70
2023-04-25T18:53:43.512Z,9.70
2023-04-25T18:56:10.180Z,9.60
2023-04-25T18:58:36.870Z,9.80
2023-04-25T19:01:04.676Z,9.80
2023-04-25T19:03:31.736Z,9.70
2023-04-25T19:05:58.638Z,9.50
2023-04-25T19:08:26.771Z,9.50
2023-04-25T19:10:53.760Z,9.50
2023-04-25T19:13:21.113Z,9.40
2023-04-25T19:15:48.366Z,9.50
2023-04-25T19:18:15.295Z,9.40
2023-04-25T19:20:42.130Z,9.40
2023-04-25T19:23:09.041Z,9.40
2023-04-25T19:25:36.244Z,9.30
2023-04-25T19:28:03.492Z,9.30
2023-04-25T19:30:31.389Z,9.40
2023-04-25T19:32:58.038Z,9.30
2023-04-25T19:35:25.219Z,9.30
2023-04-25T19:37:51.793Z,9.30
2023-04-25T19:40:20.090Z,9.30
2023-04-25T19:42:46.754Z,9.30
2023-04-25T19:45:13.534Z,9.20
2023-04-25T19:47:40.919Z,9.00
2023-04-25T19:50:09.066Z,9.00
2023-04-25T19:52:36.620Z,8.90
2023-04-25T19:55:04.709Z,9.00
2023-04-25T19:57:36.984Z,9.00
2023-04-25T20:00:16.944Z,8.90
2023-04-25T20:02:46.047Z,9.00
2023-04-25T20:05:14.877Z,8.90
2023-04-25T20:07:41.834Z,8.90
2023-04-25T20:10:10.401Z,8.90
2023-04-25T20:12:37.637Z,8.90
2023-04-25T20:15:05.141Z,8.70
2023-04-25T20:17:31.752Z,8.80
2023-04-25T20:19:58.338Z,8.80
2023-04-25T20:22:25.531Z,8.70
2023-04-25T20:24:52.677Z,8.70
2023-04-25T20:27:19.219Z,8.60
2023-04-25T20:29:46.070Z,8.60
2023-04-25T20:32:12.959Z,8.50
2023-04-25T20:34:39.716Z,8.50
2023-04-25T20:37:08.348Z,8.50
2023-04-25T20:39:35.746Z,8.50
2023-04-25T20:42:02.892Z,8.60
2023-04-25T20:44:29.729Z,8.40
2023-04-25T20:46:56.406Z,8.50
2023-04-25T20:49:23.022Z,8.50
2023-04-25T20:51:49.643Z,8.50
2023-04-25T20:54:16.572Z,8.60
2023-04-25T20:56:43.198Z,8.50
2023-04-25T20:59:09.861Z,8.50
2023-04-25T21:01:36.590Z,8.50
2023-04-25T21:04:03.656Z,8.50
2023-04-25T21:06:31.235Z,8.40
2023-04-25T21:08:57.775Z,8.40
2023-04-25T21:11:24.418Z,8.40
2023-04-25T21:13:51.678Z,8.40
2023-04-25T21:16:18.583Z,8.40
2023-04-25T21:18:45.221Z,8.30
2023-04-25T21:21:11.850Z,8.30
2023-04-25T21:23:38.408Z,8.10
2023-04-25T21:26:05.900Z,8.10
2023-04-25T21:28:32.500Z,8.00
2023-04-25T21:30:59.316Z,7.80
2023-04-25T21:33:25.996Z,7.90
2023-04-25T21:35:52.547Z,8.00
2023-04-25T21:38:19.187Z,8.00
2023-04-25T21:40:46.029Z,7.90
2023-04-25T21:43:12.941Z,7.90
2023-04-25T21:45:53.765Z,7.80
2023-04-25T21:48:26.501Z,7.80
2023-04-25T21:50:53.225Z,7.90
2023-04-25T21:53:19.823Z,7.80
2023-04-25T21:55:46.594Z,7.80
2023-04-25T21:58:13.457Z,7.80
2023-04-25T22:00:40.037Z,7.80
2023-04-25T22:03:06.812Z,7.70
2023-04-25T22:05:34.816Z,7.60
2023-04-25T22:08:03.279Z,7.60
2023-04-25T22:10:29.859Z,7.50
2023-04-25T22:12:56.544Z,7.40
2023-04-25T22:15:26.243Z,7.40
2023-04-25T22:17:56.662Z,7.30
2023-04-25T22:20:25.963Z,7.30
2023-04-25T22:22:54.352Z,7.40
2023-04-25T22:25:21.940Z,7.40
2023-04-25T22:27:49.171Z,7.10
2023-04-25T22:30:15.919Z,7.20
2023-04-25T22:32:43.969Z,7.10
2023-04-25T22:35:10.694Z,7.20
2023-04-25T22:37:37.670Z,7.30
2023-04-25T22:40:09.052Z,7.10
2023-04-25T22:42:43.397Z,7.00
2023-04-25T22:45:11.128Z,7.10
2023-04-25T22:47:38.728Z,7.20
2023-04-25T22:50:13.209Z,7.20
2023-04-25T22:52:40.399Z,7.20
2023-04-25T22:55:07.259Z,7.20
2023-04-25T22:57:36.821Z,7.10
2023-04-25T23:00:09.291Z,7.10
2023-04-25T23:02:36.063Z,7.10
2023-04-25T23:05:02.727Z,7.00
2023-04-25T23:07:29.345Z,7.00
2023-04-25T23:09:55.980Z,7.00
2023-04-25T23:12:22.658Z,7.00
2023-04-25T23:14:52.838Z,7.00
2023-04-25T23:17:20.404Z,7.00
2023-04-25T23:19:48.186Z,7.00
2023-04-25T23:22:14.790Z,7.10
2023-04-25T23:24:41.552Z,7.10
2023-04-25T23:27:08.249Z,7.10
2023-04-25T23:29:35.057Z,7.10
2023-04-25T23:32:01.960Z,7.00
2023-04-25T23:34:32.893Z,6.80
2023-04-25T23:37:04.254Z,6.70
2023-04-25T23:39:31.098Z,6.60
2023-04-25T23:41:57.697Z,6.50
2023-04-25T23:44:24.307Z,6.60
2023-04-25T23:46:51.201Z,6.50
2023-04-25T23:49:17.864Z,6.60
2023-04-25T23:51:44.518Z,6.40
2023-04-25T23:54:11.240Z,6.40
2023-04-25T23:56:37.898Z,6.50
2023-04-25T23:59:04.754Z,6.50
